Wetterdaten: Woche 19.02.07 - 25.02.07 (KW8)
Datum Zeit Temperatur Luftfeuchte Luftdruck Niederschlag Wind Richtung Sonnenschein UV-Strahlung Solar Taupunkt Windchill Windben
19.02.2007 00:00 2.8 C 91 % 1016.1 hPa 0.0 l/m 0.4 km/h (0 Bft) O 0.00 h 0.0 UV-I 0 W/m 1.5 C 2.8 C 0.8 km/h (0 Bft)
19.02.2007 01:00 2.2 C 92 % 1015.8 hPa 0.0 l/m 0.0 km/h (0 Bft) N 0.00 h 0.0 UV-I 0 W/m 1.1 C 2.2 C 0.3 km/h (0 Bft)
19.02.2007 02:00 1.4 C 95 % 1015.6 hPa 0.0 l/m 0.1 km/h (0 Bft) O 0.00 h 0.0 UV-I 0 W/m 0.6 C 1.4 C 0.1 km/h (0 Bft)
19.02.2007 03:00 1.1 C 96 % 1015.5 hPa 0.0 l/m 0.0 km/h (0 Bft) N 0.00 h 0.0 UV-I 0 W/m 0.5 C 1.1 C 0.3 km/h (0 Bft)
19.02.2007 04:00 0.8 C 95 % 1015.5 hPa 0.0 l/m 0.1 km/h (0 Bft) O 0.00 h 0.0 UV-I 0 W/m 0.2 C 0.8 C 0.2 km/h (0 Bft)
19.02.2007 05:00 0.4 C 97 % 1015.6 hPa 0.0 l/m 0.0 km/h (0 Bft) O 0.00 h 0.0 UV-I 0 W/m -0.1 C 0.4 C 0.3 km/h (0 Bft)
19.02.2007 06:00 -0.1 C 97 % 1015.7 hPa 0.0 l/m 0.2 km/h (0 Bft) O 0.00 h 0.0 UV-I 0 W/m -0.5 C -0.1 C 0.7 km/h (0 Bft)
19.02.2007 07:00 -0.4 C 98 % 1016.2 hPa 0.0 l/m 0.4 km/h (0 Bft) O 0.07 h 0.0 UV-I 15 W/m -0.7 C -0.4 C 1.0 km/h (0 Bft)
19.02.2007 08:00 0.1 C 98 % 1016.7 hPa 0.0 l/m 0.2 km/h (0 Bft) O 0.00 h 0.5 UV-I 70 W/m -0.2 C 0.1 C 0.5 km/h (0 Bft)
19.02.2007 09:00 1.6 C 96 % 1017.0 hPa 0.0 l/m 0.1 km/h (0 Bft) O 0.68 h 0.7 UV-I 201 W/m 1.1 C 1.6 C 0.3 km/h (0 Bft)
19.02.2007 10:00 4.2 C 87 % 1016.6 hPa 0.0 l/m 0.2 km/h (0 Bft) NO 0.80 h 1.2 UV-I 307 W/m 2.3 C 4.2 C 0.6 km/h (0 Bft)
19.02.2007 11:00 8.3 C 78 % 1015.7 hPa 0.0 l/m 1.0 km/h (0 Bft) NO 0.82 h 1.6 UV-I 369 W/m 4.7 C 8.3 C 2.4 km/h (1 Bft)
19.02.2007 12:00 10.3 C 70 % 1014.7 hPa 0.0 l/m 2.2 km/h (1 Bft) N 1.00 h 1.8 UV-I 437 W/m 5.2 C 10.3 C 4.2 km/h (1 Bft)
19.02.2007 13:00 11.6 C 66 % 1013.8 hPa 0.0 l/m 2.1 km/h (1 Bft) N 1.00 h 1.8 UV-I 435 W/m 5.3 C 11.6 C 4.1 km/h (1 Bft)
19.02.2007 14:00 12.7 C 58 % 1012.9 hPa 0.0 l/m 2.4 km/h (1 Bft) N-NW 1.00 h 1.5 UV-I 393 W/m 4.7 C 12.7 C 4.5 km/h (1 Bft)
19.02.2007 15:00 13.3 C 54 % 1012.5 hPa 0.0 l/m 2.6 km/h (1 Bft) N 1.00 h 1.0 UV-I 282 W/m 4.1 C 13.3 C 4.8 km/h (1 Bft)
19.02.2007 16:00 13.3 C 52 % 1012.2 hPa 0.0 l/m 1.6 km/h (1 Bft) N-NW 0.95 h 0.6 UV-I 149 W/m 3.6 C 13.3 C 3.3 km/h (1 Bft)
19.02.2007 17:00 11.9 C 59 % 1012.0 hPa 0.0 l/m 0.3 km/h (0 Bft) N-NW 0.02 h 0.0 UV-I 33 W/m 4.1 C 11.9 C 1.0 km/h (0 Bft)
19.02.2007 18:00 8.8 C 72 % 1012.4 hPa 0.0 l/m 1.0 km/h (0 Bft) N-NW 0.00 h 0.0 UV-I 0 W/m 4.1 C 8.8 C 2.4 km/h (1 Bft)
19.02.2007 19:00 6.7 C 80 % 1012.6 hPa 0.0 l/m 1.0 km/h (0 Bft) O 0.00 h 0.0 UV-I 0 W/m 3.6 C 6.7 C 2.0 km/h (1 Bft)
19.02.2007 20:00 4.8 C 87 % 1012.7 hPa 0.0 l/m 1.6 km/h (1 Bft) O 0.00 h 0.0 UV-I 0 W/m 2.8 C 4.8 C 2.8 km/h (1 Bft)
19.02.2007 21:00 4.1 C 89 % 1012.7 hPa 0.0 l/m 0.9 km/h (0 Bft) O 0.00 h 0.0 UV-I 0 W/m 2.4 C 4.1 C 2.3 km/h (1 Bft)
19.02.2007 22:00 3.6 C 90 % 1012.8 hPa 0.0 l/m 2.4 km/h (1 Bft) O 0.00 h 0.0 UV-I 0 W/m 2.1 C 3.5 C 3.9 km/h (1 Bft)
19.02.2007 23:00 3.0 C 91 % 1012.4 hPa 0.0 l/m 0.6 km/h (0 Bft) O 0.00 h 0.0 UV-I 0 W/m 1.7 C 3.0 C 1.7 km/h (1 Bft)
20.02.2007 00:00 2.2 C 93 % 1012.3 hPa 0.0 l/m 0.2 km/h (0 Bft) O 0.00 h 0.0 UV-I 0 W/m 1.3 C 2.2 C 0.8 km/h (0 Bft)
20.02.2007 01:00 1.5 C 95 % 1012.1 hPa 0.0 l/m 0.5 km/h (0 Bft) O 0.00 h 0.0 UV-I 0 W/m 0.8 C 1.5 C 1.3 km/h (1 Bft)
20.02.2007 02:00 1.2 C 96 % 1012.1 hPa 0.0 l/m 0.3 km/h (0 Bft) O 0.00 h 0.0 UV-I 0 W/m 0.6 C 1.2 C 1.0 km/h (0 Bft)
20.02.2007 03:00 0.8 C 96 % 1012.0 hPa 0.0 l/m 0.9 km/h (0 Bft) O 0.00 h 0.0 UV-I 0 W/m 0.2 C 0.8 C 1.9 km/h (1 Bft)
20.02.2007 04:00 0.1 C 97 % 1012.1 hPa 0.0 l/m 0.3 km/h (0 Bft) O 0.00 h 0.0 UV-I 0 W/m -0.4 C 0.1 C 1.1 km/h (0 Bft)
20.02.2007 05:00 -0.3 C 97 % 1012.4 hPa 0.0 l/m 0.1 km/h (0 Bft) O 0.00 h 0.0 UV-I 0 W/m -0.7 C -0.3 C 0.3 km/h (0 Bft)
20.02.2007 06:00 -0.4 C 98 % 1012.8 hPa 0.0 l/m 1.5 km/h (1 Bft) O 0.00 h 0.0 UV-I 0 W/m -0.6 C -0.4 C 2.6 km/h (1 Bft)
20.02.2007 07:00 -0.1 C 99 % 1013.4 hPa 0.0 l/m 0.0 km/h (0 Bft) O-SO 0.00 h 0.0 UV-I 9 W/m -0.2 C -0.1 C 0.4 km/h (0 Bft)
20.02.2007 08:00 -0.1 C 99 % 1014.0 hPa 0.0 l/m 0.6 km/h (0 Bft) O-SO 0.00 h 0.5 UV-I 39 W/m -0.2 C -0.1 C 1.6 km/h (1 Bft)
20.02.2007 09:00 0.4 C 100 % 1014.3 hPa 0.0 l/m 2.6 km/h (1 Bft) O-SO 0.00 h 0.6 UV-I 113 W/m 0.4 C 0.2 C 4.5 km/h (1 Bft)
20.02.2007 10:00 1.6 C 100 % 1014.3 hPa 0.0 l/m 1.5 km/h (1 Bft) SO 0.00 h 0.9 UV-I 153 W/m 1.6 C 1.5 C 3.2 km/h (1 Bft)
20.02.2007 11:00 2.8 C 100 % 1014.1 hPa 0.0 l/m 0.7 km/h (0 Bft) SO 0.22 h 1.4 UV-I 251 W/m 2.8 C 2.8 C 2.2 km/h (1 Bft)
20.02.2007 12:00 5.9 C 95 % 1013.3 hPa 0.0 l/m 1.0 km/h (0 Bft) W-NW 0.98 h 2.2 UV-I 440 W/m 5.0 C 5.9 C 2.7 km/h (1 Bft)
20.02.2007 13:00 9.2 C 74 % 1012.2 hPa 0.0 l/m 2.5 km/h (1 Bft) W 1.00 h 2.1 UV-I 406 W/m 4.7 C 9.2 C 4.7 km/h (1 Bft)
20.02.2007 14:00 11.0 C 65 % 1011.5 hPa 0.0 l/m 2.7 km/h (1 Bft) W 1.00 h 1.7 UV-I 373 W/m 4.7 C 11.0 C 4.7 km/h (1 Bft)
20.02.2007 15:00 12.2 C 61 % 1011.1 hPa 0.0 l/m 3.1 km/h (1 Bft) W-NW 1.00 h 1.1 UV-I 303 W/m 5.0 C 12.2 C 5.0 km/h (1 Bft)
20.02.2007 16:00 12.5 C 57 % 1010.9 hPa 0.0 l/m 1.8 km/h (1 Bft) W 0.97 h 0.6 UV-I 162 W/m 4.1 C 12.5 C 3.8 km/h (1 Bft)
20.02.2007 17:00 10.7 C 58 % 1011.2 hPa 0.0 l/m 2.1 km/h (1 Bft) O 0.40 h 0.0 UV-I 40 W/m 2.6 C 10.6 C 4.0 km/h (1 Bft)
20.02.2007 18:00 8.4 C 68 % 1012.0 hPa 0.0 l/m 1.8 km/h (1 Bft) O-SO 0.00 h 0.0 UV-I 0 W/m 2.8 C 8.3 C 3.3 km/h (1 Bft)
20.02.2007 19:00 5.9 C 80 % 1012.7 hPa 0.0 l/m 3.0 km/h (1 Bft) O 0.00 h 0.0 UV-I 0 W/m 2.7 C 5.7 C 4.8 km/h (1 Bft)
20.02.2007 20:00 4.0 C 86 % 1013.4 hPa 0.0 l/m 2.5 km/h (1 Bft) O-SO 0.00 h 0.0 UV-I 0 W/m 1.9 C 3.7 C 3.8 km/h (1 Bft)
20.02.2007 21:00 3.3 C 89 % 1014.0 hPa 0.0 l/m 1.7 km/h (1 Bft) O 0.00 h 0.0 UV-I 0 W/m 1.6 C 3.2 C 3.2 km/h (1 Bft)
20.02.2007 22:00 2.2 C 92 % 1014.3 hPa 0.0 l/m 1.4 km/h (1 Bft) O 0.00 h 0.0 UV-I 0 W/m 1.0 C 2.2 C 2.6 km/h (1 Bft)
20.02.2007 23:00 1.7 C 92 % 1014.5 hPa 0.0 l/m 0.5 km/h (0 Bft) O 0.00 h 0.0 UV-I 0 W/m 0.6 C 1.7 C 1.2 km/h (1 Bft)
21.02.2007 00:00 1.2 C 94 % 1014.4 hPa 0.0 l/m 1.1 km/h (0 Bft) O 0.00 h 0.0 UV-I 0 W/m 0.4 C 1.2 C 2.0 km/h (1 Bft)
21.02.2007 01:00 0.7 C 95 % 1014.4 hPa 0.0 l/m 0.4 km/h (0 Bft) O 0.00 h 0.0 UV-I 0 W/m 0.0 C 0.7 C 1.0 km/h (0 Bft)
21.02.2007 02:00 0.2 C 96 % 1014.5 hPa 0.0 l/m 0.2 km/h (0 Bft) O 0.00 h 0.0 UV-I 0 W/m -0.4 C 0.2 C 0.6 km/h (0 Bft)
21.02.2007 03:00 -0.1 C 97 % 1014.6 hPa 0.0 l/m 1.5 km/h (1 Bft) O 0.00 h 0.0 UV-I 0 W/m -0.6 C -0.2 C 2.5 km/h (1 Bft)
21.02.2007 04:00 -0.5 C 97 % 1015.0 hPa 0.0 l/m 0.9 km/h (0 Bft) O-SO 0.00 h 0.0 UV-I 0 W/m -0.9 C -0.5 C 1.6 km/h (1 Bft)
21.02.2007 05:00 -0.1 C 98 % 1015.5 hPa 0.0 l/m 3.0 km/h (1 Bft) O-SO 0.00 h 0.0 UV-I 0 W/m -0.4 C -0.5 C 4.7 km/h (1 Bft)
21.02.2007 06:00 0.7 C 99 % 1015.9 hPa 0.0 l/m 0.4 km/h (0 Bft) O-SO 0.00 h 0.0 UV-I 0 W/m 0.5 C 0.7 C 1.6 km/h (1 Bft)
21.02.2007 07:00 0.8 C 99 % 1016.4 hPa 0.0 l/m 0.0 km/h (0 Bft) O-SO 0.00 h 0.0 UV-I 10 W/m 0.6 C 0.8 C 0.1 km/h (0 Bft)
21.02.2007 08:00 0.9 C 100 % 1016.9 hPa 0.2 l/m 0.1 km/h (0 Bft) O-SO 0.00 h 0.5 UV-I 43 W/m 0.9 C 0.9 C 0.5 km/h (0 Bft)
21.02.2007 09:00 1.2 C 100 % 1017.1 hPa 0.0 l/m 1.1 km/h (1 Bft) O-SO 0.00 h 0.6 UV-I 108 W/m 1.2 C 1.2 C 2.8 km/h (1 Bft)
21.02.2007 10:00 2.1 C 100 % 1016.9 hPa 0.0 l/m 1.0 km/h (0 Bft) O-SO 0.37 h 1.2 UV-I 251 W/m 2.1 C 2.1 C 2.4 km/h (1 Bft)
21.02.2007 11:00 5.4 C 87 % 1016.5 hPa 0.0 l/m 0.4 km/h (0 Bft) O-SO 1.00 h 2.0 UV-I 431 W/m 3.3 C 5.4 C 1.4 km/h (1 Bft)
21.02.2007 12:00 9.1 C 68 % 1015.8 hPa 0.0 l/m 0.9 km/h (0 Bft) O-SO 1.00 h 2.3 UV-I 469 W/m 3.6 C 9.1 C 2.9 km/h (1 Bft)
21.02.2007 13:00 11.9 C 59 % 1014.8 hPa 0.0 l/m 2.1 km/h (1 Bft) NW 1.00 h 2.2 UV-I 459 W/m 4.2 C 11.9 C 4.4 km/h (1 Bft)
21.02.2007 14:00 14.1 C 49 % 1013.9 hPa 0.0 l/m 3.0 km/h (1 Bft) S-SO 1.00 h 1.7 UV-I 395 W/m 3.6 C 14.1 C 6.0 km/h (2 Bft)
21.02.2007 15:00 14.6 C 47 % 1013.6 hPa 0.0 l/m 3.1 km/h (1 Bft) S-SO 1.00 h 1.0 UV-I 281 W/m 3.3 C 14.6 C 6.3 km/h (2 Bft)
21.02.2007 16:00 13.4 C 47 % 1013.6 hPa 0.0 l/m 2.2 km/h (1 Bft) S-SO 0.18 h 0.7 UV-I 72 W/m 2.2 C 13.4 C 5.1 km/h (1 Bft)
21.02.2007 17:00 12.2 C 51 % 1013.5 hPa 0.0 l/m 0.5 km/h (0 Bft) S-SW 0.00 h 0.0 UV-I 14 W/m 2.4 C 12.2 C 1.8 km/h (1 Bft)
21.02.2007 18:00 10.7 C 59 % 1013.9 hPa 0.0 l/m 2.6 km/h (1 Bft) S-SO 0.00 h 0.0 UV-I 0 W/m 2.9 C 10.6 C 4.6 km/h (1 Bft)
21.02.2007 19:00 10.5 C 57 % 1013.9 hPa 0.0 l/m 2.0 km/h (1 Bft) S-SO 0.00 h 0.0 UV-I 0 W/m 2.4 C 10.5 C 3.6 km/h (1 Bft)
21.02.2007 20:00 9.6 C 61 % 1014.3 hPa 0.0 l/m 1.5 km/h (1 Bft) SO 0.00 h 0.0 UV-I 0 W/m 2.5 C 9.6 C 3.2 km/h (1 Bft)
21.02.2007 21:00 10.2 C 63 % 1014.8 hPa 0.0 l/m 4.4 km/h (1 Bft) W 0.00 h 0.0 UV-I 0 W/m 3.5 C 10.2 C 7.3 km/h (2 Bft)
21.02.2007 22:00 10.2 C 68 % 1014.7 hPa 0.0 l/m 9.1 km/h (2 Bft) W-NW 0.00 h 0.0 UV-I 0 W/m 4.5 C 10.0 C 14.1 km/h (3 Bft)
21.02.2007 23:00 9.4 C 74 % 1014.6 hPa 0.0 l/m 3.5 km/h (1 Bft) W-NW 0.00 h 0.0 UV-I 0 W/m 4.9 C 9.2 C 6.1 km/h (2 Bft)
22.02.2007 00:00 9.1 C 76 % 1014.4 hPa 0.0 l/m 1.0 km/h (0 Bft) S 0.00 h 0.0 UV-I 0 W/m 5.0 C 9.0 C 2.6 km/h (1 Bft)
22.02.2007 01:00 8.4 C 79 % 1014.2 hPa 0.0 l/m 0.9 km/h (0 Bft) SW 0.00 h 0.0 UV-I 0 W/m 5.0 C 8.4 C 2.1 km/h (1 Bft)
22.02.2007 02:00 7.3 C 83 % 1014.1 hPa 0.0 l/m 0.9 km/h (0 Bft) S-SW 0.00 h 0.0 UV-I 0 W/m 4.6 C 7.3 C 2.3 km/h (1 Bft)
22.02.2007 03:00 6.1 C 87 % 1014.1 hPa 0.0 l/m 0.7 km/h (0 Bft) S-SO 0.00 h 0.0 UV-I 0 W/m 4.1 C 6.1 C 1.4 km/h (1 Bft)
22.02.2007 04:00 5.1 C 89 % 1013.9 hPa 0.0 l/m 2.9 km/h (1 Bft) O-SO 0.00 h 0.0 UV-I 0 W/m 3.5 C 4.8 C 4.3 km/h (1 Bft)
22.02.2007 05:00 4.0 C 90 % 1014.3 hPa 0.0 l/m 0.7 km/h (0 Bft) SO 0.00 h 0.0 UV-I 0 W/m 2.5 C 4.0 C 1.6 km/h (1 Bft)
22.02.2007 06:00 3.0 C 92 % 1014.6 hPa 0.0 l/m 1.8 km/h (1 Bft) O-SO 0.00 h 0.0 UV-I 0 W/m 1.9 C 2.7 C 2.6 km/h (1 Bft)
22.02.2007 07:00 2.2 C 95 % 1014.5 hPa 0.0 l/m 0.8 km/h (0 Bft) O 0.00 h 0.0 UV-I 17 W/m 1.5 C 2.2 C 1.2 km/h (1 Bft)
22.02.2007 08:00 2.7 C 96 % 1014.6 hPa 0.0 l/m 0.7 km/h (0 Bft) O-SO 0.23 h 0.6 UV-I 94 W/m 2.1 C 2.7 C 1.4 km/h (1 Bft)
22.02.2007 09:00 4.9 C 88 % 1014.2 hPa 0.0 l/m 0.2 km/h (0 Bft) O-SO 0.83 h 1.0 UV-I 214 W/m 3.1 C 4.9 C 1.1 km/h (1 Bft)
22.02.2007 10:00 6.8 C 80 % 1013.9 hPa 0.0 l/m 0.4 km/h (0 Bft) NO 1.00 h 1.7 UV-I 338 W/m 3.5 C 6.8 C 1.8 km/h (1 Bft)
22.02.2007 11:00 9.1 C 74 % 1013.7 hPa 0.0 l/m 1.4 km/h (1 Bft) N 1.00 h 2.4 UV-I 440 W/m 4.7 C 9.1 C 3.2 km/h (1 Bft)
22.02.2007 12:00 11.3 C 67 % 1013.0 hPa 0.0 l/m 1.8 km/h (1 Bft) W 1.00 h 2.9 UV-I 497 W/m 5.3 C 11.3 C 3.5 km/h (1 Bft)
22.02.2007 13:00 13.0 C 57 % 1012.3 hPa 0.0 l/m 2.5 km/h (1 Bft) O-SO 1.00 h 2.6 UV-I 421 W/m 4.7 C 13.0 C 5.0 km/h (1 Bft)
22.02.2007 14:00 14.2 C 49 % 1011.7 hPa 0.0 l/m 2.6 km/h (1 Bft) S-SO 1.00 h 2.0 UV-I 388 W/m 3.5 C 14.2 C 5.3 km/h (1 Bft)
22.02.2007 15:00 14.9 C 45 % 1011.3 hPa 0.0 l/m 3.1 km/h (1 Bft) S-SO 1.00 h 1.4 UV-I 316 W/m 2.9 C 14.9 C 5.6 km/h (1 Bft)
22.02.2007 16:00 14.7 C 44 % 1011.1 hPa 0.0 l/m 3.2 km/h (1 Bft) S-SO 1.00 h 0.7 UV-I 179 W/m 2.6 C 14.7 C 6.5 km/h (2 Bft)
22.02.2007 17:00 13.4 C 48 % 1011.5 hPa 0.0 l/m 1.1 km/h (0 Bft) S-SW 0.25 h 0.5 UV-I 37 W/m 2.4 C 13.4 C 3.3 km/h (1 Bft)
22.02.2007 18:00 11.5 C 57 % 1012.0 hPa 0.0 l/m 3.5 km/h (1 Bft) SO 0.00 h 0.0 UV-I 0 W/m 3.1 C 11.5 C 5.4 km/h (1 Bft)
22.02.2007 19:00 10.3 C 64 % 1012.6 hPa 0.0 l/m 2.5 km/h (1 Bft) O-SO 0.00 h 0.0 UV-I 0 W/m 3.8 C 10.3 C 3.8 km/h (1 Bft)
22.02.2007 20:00 9.1 C 73 % 1012.8 hPa 0.0 l/m 0.9 km/h (0 Bft) O-SO 0.00 h 0.0 UV-I 0 W/m 4.4 C 9.1 C 1.8 km/h (1 Bft)
22.02.2007 21:00 8.6 C 75 % 1013.0 hPa 0.0 l/m 0.1 km/h (0 Bft) O-SO 0.00 h 0.0 UV-I 0 W/m 4.5 C 8.6 C 0.2 km/h (0 Bft)
22.02.2007 22:00 8.2 C 76 % 1013.0 hPa 0.0 l/m 0.0 km/h (0 Bft) N 0.00 h 0.0 UV-I 0 W/m 4.3 C 8.2 C 0.0 km/h (0 Bft)
22.02.2007 23:00 7.5 C 80 % 1012.8 hPa 0.0 l/m 0.5 km/h (0 Bft) O-SO 0.00 h 0.0 UV-I 0 W/m 4.4 C 7.5 C 1.0 km/h (0 Bft)
23.02.2007 00:00 6.7 C 82 % 1012.7 hPa 0.0 l/m 0.9 km/h (0 Bft) NO 0.00 h 0.0 UV-I 0 W/m 3.9 C 6.6 C 1.7 km/h (1 Bft)
23.02.2007 01:00 5.4 C 87 % 1012.7 hPa 0.0 l/m 0.8 km/h (0 Bft) O-SO 0.00 h 0.0 UV-I 0 W/m 3.4 C 5.3 C 1.4 km/h (1 Bft)
23.02.2007 02:00 4.3 C 91 % 1012.7 hPa 0.0 l/m 1.2 km/h (1 Bft) O-SO 0.00 h 0.0 UV-I 0 W/m 2.9 C 4.3 C 2.0 km/h (1 Bft)
23.02.2007 03:00 3.5 C 92 % 1012.7 hPa 0.0 l/m 1.0 km/h (0 Bft) O-SO 0.00 h 0.0 UV-I 0 W/m 2.3 C 3.4 C 1.7 km/h (1 Bft)
23.02.2007 04:00 2.8 C 94 % 1012.8 hPa 0.0 l/m 1.7 km/h (1 Bft) O-SO 0.00 h 0.0 UV-I 0 W/m 1.9 C 2.6 C 2.7 km/h (1 Bft)
23.02.2007 05:00 2.7 C 93 % 1013.0 hPa 0.0 l/m 0.6 km/h (0 Bft) O-SO 0.00 h 0.0 UV-I 0 W/m 1.7 C 2.6 C 1.1 km/h (1 Bft)
23.02.2007 06:00 2.8 C 94 % 1013.1 hPa 0.0 l/m 0.2 km/h (0 Bft) O-SO 0.00 h 0.0 UV-I 0 W/m 1.9 C 2.8 C 0.5 km/h (0 Bft)
23.02.2007 07:00 3.2 C 94 % 1013.1 hPa 0.0 l/m 0.0 km/h (0 Bft) N 0.00 h 0.0 UV-I 18 W/m 2.3 C 3.2 C 0.0 km/h (0 Bft)
23.02.2007 08:00 3.6 C 93 % 1013.3 hPa 0.0 l/m 0.1 km/h (0 Bft) O-SO 0.00 h 0.6 UV-I 39 W/m 2.6 C 3.6 C 0.4 km/h (0 Bft)
23.02.2007 09:00 4.3 C 91 % 1013.1 hPa 0.0 l/m 0.2 km/h (0 Bft) O-SO 0.00 h 0.8 UV-I 81 W/m 3.0 C 4.3 C 0.5 km/h (0 Bft)
23.02.2007 10:00 6.0 C 85 % 1012.8 hPa 0.0 l/m 0.5 km/h (0 Bft) O-SO 0.67 h 1.5 UV-I 273 W/m 3.7 C 6.0 C 1.7 km/h (1 Bft)
23.02.2007 11:00 8.2 C 76 % 1012.4 hPa 0.0 l/m 0.7 km/h (0 Bft) W 0.60 h 2.1 UV-I 333 W/m 4.1 C 8.2 C 2.0 km/h (1 Bft)
23.02.2007 12:00 11.0 C 67 % 1011.8 hPa 0.0 l/m 1.2 km/h (1 Bft) W-NW 0.68 h 2.5 UV-I 379 W/m 5.0 C 11.0 C 3.2 km/h (1 Bft)
23.02.2007 13:00 13.4 C 59 % 1011.0 hPa 0.0 l/m 2.4 km/h (1 Bft) S 0.88 h 2.4 UV-I 418 W/m 5.5 C 13.4 C 5.3 km/h (1 Bft)
23.02.2007 14:00 14.2 C 54 % 1010.3 hPa 0.0 l/m 3.7 km/h (1 Bft) S-SO 0.82 h 1.7 UV-I 319 W/m 5.1 C 14.2 C 7.2 km/h (2 Bft)
23.02.2007 15:00 14.1 C 54 % 1009.9 hPa 0.0 l/m 3.3 km/h (1 Bft) S-SO 0.52 h 1.1 UV-I 216 W/m 5.0 C 14.1 C 7.1 km/h (2 Bft)
23.02.2007 16:00 13.9 C 52 % 1009.7 hPa 0.0 l/m 3.6 km/h (1 Bft) S 0.90 h 0.6 UV-I 156 W/m 4.2 C 13.9 C 7.2 km/h (2 Bft)
23.02.2007 17:00 13.0 C 53 % 1009.8 hPa 0.0 l/m 3.4 km/h (1 Bft) S-SO 0.82 h 0.0 UV-I 53 W/m 3.7 C 13.0 C 6.3 km/h (2 Bft)
23.02.2007 18:00 10.7 C 63 % 1010.3 hPa 0.0 l/m 4.9 km/h (1 Bft) S-SO 0.00 h 0.0 UV-I 10 W/m 4.0 C 10.4 C 6.7 km/h (2 Bft)
23.02.2007 19:00 8.8 C 70 % 1010.5 hPa 0.0 l/m 1.8 km/h (1 Bft) O-SO 0.00 h 0.0 UV-I 0 W/m 3.7 C 8.7 C 2.8 km/h (1 Bft)
23.02.2007 20:00 7.2 C 77 % 1010.6 hPa 0.0 l/m 1.5 km/h (1 Bft) O 0.00 h 0.0 UV-I 0 W/m 3.5 C 7.1 C 2.6 km/h (1 Bft)
23.02.2007 21:00 5.7 C 83 % 1010.8 hPa 0.0 l/m 1.2 km/h (1 Bft) O 0.00 h 0.0 UV-I 0 W/m 3.1 C 5.6 C 1.8 km/h (1 Bft)
23.02.2007 22:00 4.7 C 88 % 1011.1 hPa 0.0 l/m 0.8 km/h (0 Bft) O 0.00 h 0.0 UV-I 0 W/m 2.8 C 4.7 C 1.7 km/h (1 Bft)
23.02.2007 23:00 3.8 C 90 % 1011.0 hPa 0.0 l/m 2.5 km/h (1 Bft) O 0.00 h 0.0 UV-I 0 W/m 2.3 C 3.6 C 3.6 km/h (1 Bft)
24.02.2007 00:00 3.4 C 91 % 1010.5 hPa 0.0 l/m 0.3 km/h (0 Bft) SO 0.00 h 0.0 UV-I 0 W/m 2.1 C 3.4 C 0.7 km/h (0 Bft)
24.02.2007 01:00 3.1 C 92 % 1010.3 hPa 0.0 l/m 0.6 km/h (0 Bft) SO 0.00 h 0.0 UV-I 0 W/m 2.0 C 3.1 C 1.4 km/h (1 Bft)
24.02.2007 02:00 3.1 C 93 % 1010.2 hPa 0.0 l/m 0.7 km/h (0 Bft) SO 0.00 h 0.0 UV-I 0 W/m 2.1 C 3.1 C 1.3 km/h (1 Bft)
24.02.2007 03:00 3.0 C 95 % 1009.6 hPa 0.0 l/m 0.7 km/h (0 Bft) SO 0.00 h 0.0 UV-I 0 W/m 2.2 C 3.0 C 1.1 km/h (1 Bft)
24.02.2007 04:00 3.3 C 94 % 1008.9 hPa 0.0 l/m 0.6 km/h (0 Bft) O-SO 0.00 h 0.0 UV-I 0 W/m 2.4 C 3.2 C 1.4 km/h (1 Bft)
24.02.2007 05:00 2.7 C 95 % 1008.5 hPa 0.0 l/m 0.2 km/h (0 Bft) O 0.00 h 0.0 UV-I 0 W/m 2.0 C 2.7 C 0.6 km/h (0 Bft)
24.02.2007 06:00 2.1 C 96 % 1008.1 hPa 0.0 l/m 0.4 km/h (0 Bft) O 0.00 h 0.0 UV-I 0 W/m 1.6 C 2.1 C 1.2 km/h (1 Bft)
24.02.2007 07:00 1.4 C 97 % 1007.7 hPa 0.0 l/m 0.6 km/h (0 Bft) O 0.17 h 0.0 UV-I 28 W/m 1.0 C 1.4 C 1.0 km/h (0 Bft)
24.02.2007 08:00 2.5 C 96 % 1007.4 hPa 0.0 l/m 0.5 km/h (0 Bft) O-SO 0.38 h 0.0 UV-I 85 W/m 2.0 C 2.5 C 1.1 km/h (1 Bft)
24.02.2007 09:00 3.3 C 93 % 1006.9 hPa 0.0 l/m 1.2 km/h (1 Bft) W 0.00 h 0.5 UV-I 47 W/m 2.3 C 3.2 C 2.4 km/h (1 Bft)
24.02.2007 10:00 4.4 C 91 % 1008.1 hPa 0.0 l/m 4.1 km/h (1 Bft) O-SO 0.00 h 0.0 UV-I 35 W/m 3.1 C 3.6 C 6.3 km/h (2 Bft)
24.02.2007 11:00 5.5 C 93 % 1008.7 hPa 0.8 l/m 3.0 km/h (1 Bft) O-SO 0.00 h 0.8 UV-I 59 W/m 4.4 C 5.2 C 5.8 km/h (2 Bft)
24.02.2007 12:00 8.1 C 86 % 1008.4 hPa 0.0 l/m 9.8 km/h (2 Bft) S 0.22 h 1.8 UV-I 277 W/m 5.9 C 6.4 C 19.3 km/h (3 Bft)
24.02.2007 13:00 10.6 C 77 % 1007.4 hPa 0.0 l/m 8.6 km/h (2 Bft) S 0.70 h 2.3 UV-I 405 W/m 6.6 C 10.3 C 17.8 km/h (3 Bft)
24.02.2007 14:00 8.2 C 83 % 1008.8 hPa 2.0 l/m 20.8 km/h (4 Bft) W 0.18 h 1.4 UV-I 135 W/m 5.3 C 5.6 C 31.3 km/h (5 Bft)
24.02.2007 15:00 6.2 C 91 % 1009.1 hPa 1.2 l/m 6.2 km/h (2 Bft) S-SW 0.00 h 0.5 UV-I 47 W/m 4.8 C 5.2 C 11.2 km/h (2 Bft)
24.02.2007 16:00 7.0 C 89 % 1009.1 hPa 0.0 l/m 4.6 km/h (1 Bft) S-SW 0.25 h 0.5 UV-I 114 W/m 5.2 C 6.4 C 9.3 km/h (2 Bft)
24.02.2007 17:00 7.4 C 82 % 1009.2 hPa 0.0 l/m 8.0 km/h (2 Bft) S-SO 0.00 h 0.0 UV-I 24 W/m 4.4 C 6.0 C 15.9 km/h (3 Bft)
24.02.2007 18:00 7.0 C 83 % 1009.8 hPa 0.0 l/m 5.8 km/h (2 Bft) S-SO 0.00 h 0.0 UV-I 0 W/m 4.3 C 6.1 C 11.2 km/h (2 Bft)
24.02.2007 19:00 7.0 C 83 % 1010.3 hPa 0.0 l/m 8.4 km/h (2 Bft) S 0.00 h 0.0 UV-I 0 W/m 4.3 C 5.4 C 16.1 km/h (3 Bft)
24.02.2007 20:00 7.3 C 83 % 1010.2 hPa 0.0 l/m 8.5 km/h (2 Bft) S-SW 0.00 h 0.0 UV-I 0 W/m 4.6 C 5.7 C 16.7 km/h (3 Bft)
24.02.2007 21:00 7.5 C 82 % 1010.1 hPa 0.0 l/m 9.5 km/h (2 Bft) S-SO 0.00 h 0.0 UV-I 0 W/m 4.7 C 5.9 C 18.6 km/h (3 Bft)
24.02.2007 22:00 7.5 C 83 % 1009.9 hPa 0.0 l/m 6.7 km/h (2 Bft) S 0.00 h 0.0 UV-I 0 W/m 4.7 C 6.5 C 13.9 km/h (3 Bft)
24.02.2007 23:00 7.7 C 81 % 1009.3 hPa 0.0 l/m 7.2 km/h (2 Bft) SW 0.00 h 0.0 UV-I 0 W/m 4.7 C 6.5 C 14.3 km/h (3 Bft)
25.02.2007 00:00 7.5 C 83 % 1008.7 hPa 0.0 l/m 7.2 km/h (2 Bft) S-SW 0.00 h 0.0 UV-I 0 W/m 4.8 C 6.3 C 14.4 km/h (3 Bft)
25.02.2007 01:00 7.3 C 84 % 1008.0 hPa 0.0 l/m 5.4 km/h (1 Bft) S 0.00 h 0.0 UV-I 0 W/m 4.8 C 6.6 C 11.3 km/h (2 Bft)
25.02.2007 02:00 7.4 C 83 % 1007.8 hPa 0.0 l/m 4.7 km/h (1 Bft) S 0.00 h 0.0 UV-I 0 W/m 4.6 C 6.8 C 9.0 km/h (2 Bft)
25.02.2007 03:00 7.4 C 82 % 1006.9 hPa 0.0 l/m 6.2 km/h (2 Bft) S-SO 0.00 h 0.0 UV-I 0 W/m 4.6 C 6.5 C 11.9 km/h (2 Bft)
25.02.2007 04:00 7.4 C 81 % 1005.7 hPa 0.0 l/m 6.6 km/h (2 Bft) S-SO 0.00 h 0.0 UV-I 0 W/m 4.4 C 6.4 C 12.1 km/h (2 Bft)
25.02.2007 05:00 8.0 C 80 % 1005.1 hPa 0.0 l/m 7.4 km/h (2 Bft) SW 0.00 h 0.0 UV-I 0 W/m 4.8 C 6.9 C 14.4 km/h (3 Bft)
25.02.2007 06:00 7.8 C 82 % 1004.5 hPa 0.0 l/m 8.6 km/h (2 Bft) S-SO 0.00 h 0.0 UV-I 0 W/m 5.0 C 6.4 C 16.4 km/h (3 Bft)
25.02.2007 07:00 7.4 C 84 % 1003.7 hPa 0.0 l/m 5.9 km/h (2 Bft) S-SO 0.00 h 0.0 UV-I 7 W/m 4.9 C 6.5 C 11.0 km/h (2 Bft)
25.02.2007 08:00 7.1 C 89 % 1003.7 hPa 1.6 l/m 4.9 km/h (1 Bft) W 0.00 h 0.0 UV-I 10 W/m 5.4 C 6.5 C 8.8 km/h (2 Bft)
25.02.2007 09:00 6.6 C 93 % 1004.7 hPa 2.2 l/m 6.0 km/h (2 Bft) SO 0.00 h 0.0 UV-I 30 W/m 5.5 C 5.7 C 10.2 km/h (2 Bft)
25.02.2007 10:00 7.3 C 89 % 1004.0 hPa 0.0 l/m 7.6 km/h (2 Bft) S-SO 0.00 h 0.5 UV-I 51 W/m 5.6 C 6.1 C 14.9 km/h (3 Bft)
25.02.2007 11:00 5.8 C 88 % 1005.2 hPa 4.4 l/m 18.7 km/h (3 Bft) W-NW 0.00 h 0.0 UV-I 28 W/m 3.9 C 2.5 C 29.9 km/h (5 Bft)
25.02.2007 12:00 3.9 C 93 % 1006.5 hPa 0.6 l/m 5.3 km/h (1 Bft) S-SO 0.00 h 0.7 UV-I 81 W/m 2.9 C 2.9 C 9.5 km/h (2 Bft)
25.02.2007 13:00 5.4 C 93 % 1006.0 hPa 0.0 l/m 0.3 km/h (0 Bft) W 0.00 h 0.9 UV-I 127 W/m 4.3 C 5.4 C 1.4 km/h (1 Bft)
25.02.2007 14:00 6.2 C 88 % 1005.9 hPa 0.0 l/m 6.1 km/h (2 Bft) S 0.00 h 0.6 UV-I 95 W/m 4.3 C 5.1 C 12.6 km/h (3 Bft)
25.02.2007 15:00 5.8 C 84 % 1005.8 hPa 0.0 l/m 7.8 km/h (2 Bft) S-SW 0.00 h 0.5 UV-I 94 W/m 3.3 C 4.2 C 15.6 km/h (3 Bft)
25.02.2007 16:00 6.6 C 80 % 1005.6 hPa 0.0 l/m 7.6 km/h (2 Bft) S-SW 0.70 h 0.6 UV-I 191 W/m 3.3 C 5.2 C 14.8 km/h (3 Bft)
25.02.2007 17:00 6.3 C 77 % 1004.5 hPa 0.0 l/m 7.2 km/h (2 Bft) S-SW 0.00 h 0.0 UV-I 24 W/m 2.6 C 4.9 C 13.9 km/h (3 Bft)
25.02.2007 18:00 5.6 C 81 % 1004.6 hPa 0.0 l/m 4.9 km/h (1 Bft) S 0.00 h 0.0 UV-I 0 W/m 2.6 C 4.9 C 10.3 km/h (2 Bft)
25.02.2007 19:00 5.6 C 86 % 1005.6 hPa 0.2 l/m 6.4 km/h (2 Bft) SW 0.00 h 0.0 UV-I 0 W/m 3.4 C 4.4 C 12.2 km/h (2 Bft)
25.02.2007 20:00 5.2 C 87 % 1006.3 hPa 0.0 l/m 6.6 km/h (2 Bft) S-SW 0.00 h 0.0 UV-I 0 W/m 3.2 C 3.8 C 13.6 km/h (3 Bft)
25.02.2007 21:00 5.4 C 84 % 1006.5 hPa 0.0 l/m 5.9 km/h (2 Bft) SW 0.00 h 0.0 UV-I 0 W/m 2.8 C 4.2 C 11.9 km/h (2 Bft)
25.02.2007 22:00 5.4 C 85 % 1006.2 hPa 0.2 l/m 5.7 km/h (1 Bft) S 0.00 h 0.0 UV-I 0 W/m 3.0 C 4.4 C 11.5 km/h (2 Bft)
25.02.2007 23:00 5.2 C 90 % 1006.8 hPa 1.8 l/m 3.8 km/h (1 Bft) W-SW 0.00 h 0.0 UV-I 0 W/m 3.7 C 4.8 C 8.0 km/h (2 Bft)
Min-Datum _ 21.02.07 22.02.07 25.02.07 - 19.02.07 - - - - 21.02.07 21.02.07 19.02.07
_ Min-Zeit 04:59 15:47 08:00 - 00:00 - - - - 04:59 05:22 00:00
Minimum _ -1.1 C 40 % 1003.2 hPa - 0.0 km/h (0 Bft) - - - - -1.5 C -2.2 C 0.0 km/h (0 Bft)
Max-Datum _ 22.02.07 19.02.07 19.02.07 25.02.07 24.02.07 - 19.02.07 22.02.07 24.02.07 24.02.07 22.02.07 25.02.07
_ Max-Zeit 15:27 05:50 09:15 11:46 14:22 - 07:37 12:37 13:44 14:06 15:27 11:26
Maximum _ 15.5 C 100 % 1017.1 hPa 4.4 l/m 51.3 km/h
W (7 Bft)
- 0.02 h 3.0 UV-I 701 W/m 7.4 C 15.5 C 75.7 km/h
W-NW (9 Bft)
Durchschnitt _ 6.2 C 82 % 1011.7 hPa #15.2 l/m 2.7 km/h (1 Bft) S-SO #35:15 h 1.3 UV-I 189 W/m 3.0 C 5.9 C 5.1 km/h (1 Bft)
© Kaiko 2007